Eco Wildfire — V7NN8 — position and weather

sailwx.info

Track history (hours):
 
Tides and Currents Weather Stations Pressure Air Temp Water Temp Dewpoint Dewpoint Depression Visibility Wind Speed Wind Dir Waves Ship Positions

Eco Wildfire

Last reported at 2018-Mar-15 23:32 UTC. Time now 2018-Apr-20 12:51 UTC.
Position N 01°17' E 103°22'.
Warning: this ship's position is 35 days out of date.

Length 179 m; draft 9.7 m.

Type: Cargo ship. MMSI: 538006482.

Date/timePositionNaut miles runAvg speedWind from/ knotsBaromVisibWave heightAir tempDewpointWater temp
2018-Mar-15 23:32N 01°17' E 103°22'115.4
2018-Mar-15 23:29N 01°17' E 103°22'814.9
2018-Mar-15 22:58N 01°13' E 103°29'715.8
2018-Mar-15 22:30N 01°12' E 103°36'714.7
2018-Mar-15 22:00N 01°09' E 103°43'713.7
2018-Mar-15 21:30N 01°11' E 103°49'713.1
2018-Mar-15 21:00N 01°14' E 103°55'510.0
2018-Mar-15 20:29N 01°17' E 103°60'1 0.1
2018-Mar-15 09:09N 01°17' E 103°60'0 0.2
2018-Mar-15 08:51N 01°17' E 103°60'0 0.0
2018-Mar-15 07:33N 01°17' E 103°60'0 0.0
2018-Mar-15 05:33N 01°17' E 103°60'0 0.1
2018-Mar-15 05:30N 01°17' E 103°60'0 0.1
2018-Mar-15 01:50N 01°17' E 103°59'1 3.6
2018-Mar-15 01:29N 01°16' E 103°58'1 1.7
2018-Mar-15 00:59N 01°16' E 103°59'  
Track history (hours):
 
Tides and Currents Weather Stations Pressure Air Temp Water Temp Dewpoint Dewpoint Depression Visibility Wind Speed Wind Dir Waves Ship Positions

Eco Wildfire

Last reported at 2018-Mar-15 23:32 UTC. Time now 2018-Apr-20 12:51 UTC.
Position N 01°17' E 103°22'.
Warning: this ship's position is 35 days out of date.

Length 179 m; draft 9.7 m.

Type: Cargo ship. MMSI: 538006482.

Date/timePositionNaut miles runAvg speedWind from/ knotsBaromVisibWave heightAir tempDewpointWater temp
2018-Mar-15 23:32N 01°17' E 103°22'115.4
2018-Mar-15 23:29N 01°17' E 103°22'814.9
2018-Mar-15 22:58N 01°13' E 103°29'715.8
2018-Mar-15 22:30N 01°12' E 103°36'714.7
2018-Mar-15 22:00N 01°09' E 103°43'713.7
2018-Mar-15 21:30N 01°11' E 103°49'713.1
2018-Mar-15 21:00N 01°14' E 103°55'510.0
2018-Mar-15 20:29N 01°17' E 103°60'1 0.1
2018-Mar-15 09:09N 01°17' E 103°60'0 0.2
2018-Mar-15 08:51N 01°17' E 103°60'0 0.0
2018-Mar-15 07:33N 01°17' E 103°60'0 0.0
2018-Mar-15 05:33N 01°17' E 103°60'0 0.1
2018-Mar-15 05:30N 01°17' E 103°60'0 0.1
2018-Mar-15 01:50N 01°17' E 103°59'1 3.6
2018-Mar-15 01:29N 01°16' E 103°58'1 1.7
2018-Mar-15 00:59N 01°16' E 103°59'  

Dump ship's entire track history